createdAt,value
2022-09-07T00:00:17.359Z,98243.09
2022-09-07T00:05:19.489Z,98239.22
2022-09-07T00:10:23.244Z,98231.38
2022-09-07T00:15:25.162Z,98235.28
2022-09-07T00:20:27.115Z,98225.94
2022-09-07T00:25:31.796Z,98227.13
2022-09-07T00:30:34.732Z,98203.19
2022-09-07T00:35:43.163Z,98215.69
2022-09-07T00:40:45.094Z,98213.78
2022-09-07T00:45:46.935Z,98212.63
2022-09-07T00:50:56.106Z,98214.97
2022-09-07T00:56:00.355Z,98202.06
2022-09-07T01:01:07.111Z,98200.91
2022-09-07T01:06:13.747Z,98195.84
2022-09-07T01:11:17.237Z,98199.34
2022-09-07T01:16:28.145Z,98187.59
2022-09-07T01:21:45.088Z,98185.63
2022-09-07T01:26:50.182Z,98188.38
2022-09-07T01:32:25.213Z,98182.88
2022-09-07T01:37:39.924Z,98177.03
2022-09-07T01:42:54.631Z,98177.47
2022-09-07T01:48:01.347Z,98176.00
2022-09-07T01:53:15.554Z,98171.38
2022-09-07T01:58:29.727Z,98185.91
2022-09-07T02:03:37.568Z,98189.09
2022-09-07T02:08:39.830Z,98191.03
2022-09-07T02:14:05.755Z,98187.84
2022-09-07T02:19:16.943Z,98185.56
2022-09-07T02:24:24.997Z,98178.56
2022-09-07T02:29:30.797Z,98169.97
2022-09-07T02:34:33.386Z,98165.28
2022-09-07T02:39:35.599Z,98166.81
2022-09-07T02:44:40.553Z,98159.81
2022-09-07T02:50:07.870Z,98153.91
2022-09-07T02:55:24.642Z,98146.50
2022-09-07T03:00:32.085Z,98148.09
2022-09-07T03:05:42.863Z,98150.88
2022-09-07T03:10:45.176Z,98150.50
2022-09-07T03:15:47.167Z,98159.91
2022-09-07T03:20:49.179Z,98171.31
2022-09-07T03:25:51.417Z,98159.59
2022-09-07T03:30:53.364Z,98160.78
2022-09-07T03:36:01.318Z,98150.22
2022-09-07T03:41:06.259Z,98157.31
2022-09-07T03:46:10.625Z,98159.31
2022-09-07T03:51:13.981Z,98156.56
2022-09-07T03:56:18.622Z,98148.41
2022-09-07T04:01:24.042Z,98160.16
2022-09-07T04:06:26.132Z,98162.91
2022-09-07T04:11:28.191Z,98157.00
2022-09-07T04:16:30.473Z,98150.72
2022-09-07T04:21:34.281Z,98151.50
2022-09-07T04:26:37.330Z,98165.28
2022-09-07T04:31:40.157Z,98160.97
2022-09-07T04:36:42.204Z,98159.41
2022-09-07T04:41:44.209Z,98145.28
2022-09-07T04:46:46.135Z,98154.66
2022-09-07T04:51:48.127Z,98155.44
2022-09-07T04:56:50.036Z,98152.25
2022-09-07T05:01:52.033Z,98160.00
2022-09-07T05:06:54.844Z,98154.03
2022-09-07T05:11:57.191Z,98157.50
2022-09-07T05:16:59.181Z,98158.16
2022-09-07T05:22:01.195Z,98151.81
2022-09-07T05:27:04.148Z,98143.94
2022-09-07T05:32:06.072Z,98151.72
2022-09-07T05:37:08.091Z,98152.81
2022-09-07T05:42:10.082Z,98153.94
2022-09-07T05:47:12.152Z,98149.91
2022-09-07T05:52:14.455Z,98156.81
2022-09-07T05:57:16.362Z,98144.78
2022-09-07T06:02:18.471Z,98146.94
2022-09-07T06:07:22.768Z,98142.72
2022-09-07T06:12:25.756Z,98144.72
2022-09-07T06:17:29.633Z,98131.78
2022-09-07T06:22:31.576Z,98134.44
2022-09-07T06:27:33.966Z,98119.00
2022-09-07T06:37:44.082Z,98126.78
2022-09-07T06:42:46.001Z,98138.63
2022-09-07T06:47:54.117Z,98136.31
2022-09-07T06:58:18.017Z,98138.88
2022-09-07T07:03:20.767Z,98129.91
2022-09-07T07:08:25.283Z,98124.97
2022-09-07T07:13:27.580Z,98131.91
2022-09-07T07:18:29.504Z,98141.75
2022-09-07T07:23:32.090Z,98134.47
2022-09-07T07:33:56.359Z,98131.66
2022-09-07T07:44:05.076Z,98120.59
2022-09-07T07:49:06.995Z,98122.19
2022-09-07T07:54:08.877Z,98118.09
2022-09-07T07:59:15.519Z,98118.50
2022-09-07T08:04:17.827Z,98117.16
2022-09-07T08:09:19.702Z,98120.41
2022-09-07T08:14:22.048Z,98110.66
2022-09-07T08:19:23.862Z,98123.56
2022-09-07T08:24:25.833Z,98132.03
2022-09-07T08:29:31.277Z,98115.28
2022-09-07T08:34:37.231Z,98111.72
2022-09-07T08:39:39.116Z,98114.88
2022-09-07T08:44:52.409Z,98105.97
2022-09-07T08:50:09.476Z,98103.56
2022-09-07T08:55:14.439Z,98101.84
2022-09-07T09:00:18.499Z,98084.97
2022-09-07T09:05:38.379Z,98100.69
2022-09-07T09:10:49.280Z,98091.09
2022-09-07T09:16:14.453Z,98089.63
2022-09-07T09:21:18.850Z,98089.34
2022-09-07T09:26:28.952Z,98077.09
2022-09-07T09:31:36.283Z,98080.03
2022-09-07T09:36:55.030Z,98073.50
2022-09-07T09:42:00.823Z,98083.03
2022-09-07T09:52:31.843Z,98085.81
2022-09-07T10:08:37.217Z,98071.69
2022-09-07T10:13:53.218Z,98080.88
2022-09-07T10:18:57.135Z,98073.34
2022-09-07T10:24:04.853Z,98070.28
2022-09-07T10:29:22.730Z,98073.69
2022-09-07T10:35:08.226Z,98075.91
2022-09-07T10:40:28.406Z,98078.72
2022-09-07T10:46:07.511Z,98082.72
2022-09-07T10:51:16.533Z,98083.06
2022-09-07T10:56:35.696Z,98071.00
2022-09-07T11:01:56.290Z,98072.44
2022-09-07T11:07:20.970Z,98075.47
2022-09-07T11:12:30.345Z,98067.91
2022-09-07T11:17:53.340Z,98067.28
2022-09-07T11:23:15.524Z,98074.19
2022-09-07T11:28:29.192Z,98060.69
2022-09-07T11:39:28.495Z,98061.53
2022-09-07T11:44:54.089Z,98049.66
2022-09-07T11:49:59.314Z,98047.66
2022-09-07T11:55:08.032Z,98044.69
2022-09-07T12:00:23.907Z,98025.28
2022-09-07T12:05:59.382Z,98022.97
2022-09-07T12:11:39.870Z,98022.22
2022-09-07T12:17:06.469Z,98023.31
2022-09-07T12:22:22.105Z,98003.19
2022-09-07T12:27:23.882Z,98014.19
2022-09-07T12:32:56.087Z,98004.97
2022-09-07T12:38:24.683Z,98024.84
2022-09-07T12:43:44.472Z,98013.63
2022-09-07T12:49:05.149Z,98013.91
2022-09-07T12:54:06.801Z,98020.44
2022-09-07T12:59:38.422Z,98035.78
2022-09-07T13:04:52.788Z,98033.13
2022-09-07T13:10:04.737Z,98025.63
2022-09-07T13:15:06.986Z,98045.22
2022-09-07T13:20:21.611Z,98051.78
2022-09-07T13:25:26.388Z,98077.25
2022-09-07T13:30:44.958Z,98039.59
2022-09-07T13:35:48.306Z,98030.97
2022-09-07T13:40:52.585Z,98013.88
2022-09-07T13:45:54.435Z,98005.38
2022-09-07T13:51:14.229Z,97969.81
2022-09-07T13:56:30.806Z,97993.81
2022-09-07T14:01:33.084Z,97979.13
2022-09-07T14:06:38.877Z,97959.97
2022-09-07T14:11:57.082Z,97974.16
2022-09-07T14:17:04.624Z,97978.75
2022-09-07T14:22:12.677Z,97987.72
2022-09-07T14:27:35.622Z,97987.72
2022-09-07T14:32:38.096Z,98004.97
2022-09-07T14:37:40.489Z,97992.44
2022-09-07T14:42:42.870Z,97989.44
2022-09-07T14:47:45.964Z,97986.59
2022-09-07T14:58:15.721Z,98008.44
2022-09-07T15:03:27.422Z,97967.56
2022-09-07T15:08:47.083Z,97947.72
2022-09-07T15:14:11.837Z,97963.56
2022-09-07T15:19:16.604Z,97955.88
2022-09-07T15:24:18.690Z,97953.75
2022-09-07T15:29:22.164Z,97941.19
2022-09-07T15:34:24.634Z,97940.59
2022-09-07T15:39:29.938Z,97933.81
2022-09-07T15:44:32.582Z,97924.25
2022-09-07T15:49:35.086Z,97920.59
2022-09-07T15:54:39.830Z,97917.38
2022-09-07T15:59:41.808Z,97911.03
2022-09-07T16:04:43.797Z,97911.41
2022-09-07T16:09:45.661Z,97910.81
2022-09-07T16:14:47.663Z,97901.69
2022-09-07T16:19:49.494Z,97922.00
2022-09-07T16:24:52.687Z,97913.97
2022-09-07T16:29:54.498Z,97914.63
2022-09-07T16:34:56.975Z,97914.31
2022-09-07T16:39:59.663Z,97911.53
2022-09-07T16:50:23.541Z,97937.16
2022-09-07T16:55:25.581Z,97926.38
2022-09-07T17:00:31.308Z,97922.06
2022-09-07T17:05:40.497Z,97885.63
2022-09-07T17:10:42.299Z,97891.19
2022-09-07T17:15:44.108Z,97877.31
2022-09-07T17:20:58.734Z,97873.94
2022-09-07T17:26:12.081Z,97885.03
2022-09-07T17:36:51.310Z,97932.38
2022-09-07T17:41:54.546Z,97935.63
2022-09-07T17:46:56.437Z,97932.09
2022-09-07T17:52:00.330Z,97927.59
2022-09-07T17:57:03.186Z,97933.78
2022-09-07T18:02:06.272Z,97924.84
2022-09-07T18:07:08.987Z,97935.00
2022-09-07T18:12:11.332Z,97942.25
2022-09-07T18:17:13.637Z,97929.09
2022-09-07T18:22:15.767Z,97949.44
2022-09-07T18:27:18.115Z,97939.13
2022-09-07T18:32:20.046Z,97940.53
2022-09-07T18:37:21.900Z,97932.56
2022-09-07T18:42:23.952Z,97943.03
2022-09-07T18:47:29.078Z,97939.63
2022-09-07T18:57:53.549Z,97932.81
2022-09-07T19:02:55.719Z,97931.84
2022-09-07T19:07:59.639Z,97917.97
2022-09-07T19:13:02.806Z,97915.84
2022-09-07T19:18:05.786Z,97923.53
2022-09-07T19:23:07.676Z,97918.88
2022-09-07T19:28:09.531Z,97911.13
2022-09-07T19:33:12.528Z,97897.59
2022-09-07T19:38:14.459Z,97899.53
2022-09-07T19:43:18.007Z,97894.72
2022-09-07T19:48:20.565Z,97894.38
2022-09-07T19:53:23.021Z,97900.38
2022-09-07T19:58:24.823Z,97891.09
2022-09-07T20:03:26.857Z,97898.47
2022-09-07T20:08:32.513Z,97903.69
2022-09-07T20:13:36.855Z,97905.47
2022-09-07T20:18:39.257Z,97908.41
2022-09-07T20:23:41.810Z,97909.06
2022-09-07T20:28:44.613Z,97910.81
2022-09-07T20:33:47.963Z,97903.66
2022-09-07T20:38:53.410Z,97899.59
2022-09-07T20:43:56.859Z,97893.41
2022-09-07T20:48:59.204Z,97898.94
2022-09-07T20:54:01.183Z,97882.59
2022-09-07T20:59:04.056Z,97877.50
2022-09-07T21:04:06.417Z,97890.31
2022-09-07T21:09:08.391Z,97884.84
2022-09-07T21:14:13.578Z,97876.09
2022-09-07T21:19:15.821Z,97886.25
2022-09-07T21:24:21.945Z,97869.13
2022-09-07T21:29:25.761Z,97869.47
2022-09-07T21:34:27.648Z,97860.97
2022-09-07T21:39:29.549Z,97861.63
2022-09-07T21:44:31.427Z,97860.72
2022-09-07T21:49:33.247Z,97855.91
2022-09-07T21:54:35.056Z,97860.44
2022-09-07T21:59:37.279Z,97849.16
2022-09-07T22:04:39.105Z,97853.16
2022-09-07T22:09:40.844Z,97855.47
2022-09-07T22:14:43.997Z,97834.78
2022-09-07T22:19:45.862Z,97825.72
2022-09-07T22:24:47.789Z,97826.03
2022-09-07T22:29:49.540Z,97828.81
2022-09-07T22:34:51.733Z,97822.28
2022-09-07T22:39:54.069Z,97808.69
2022-09-07T22:44:55.955Z,97820.59
2022-09-07T22:49:57.756Z,97814.50
2022-09-07T22:54:59.554Z,97813.84
2022-09-07T23:00:01.370Z,97817.22
2022-09-07T23:05:04.203Z,97818.97
2022-09-07T23:10:06.750Z,97813.75
2022-09-07T23:15:08.941Z,97803.69
2022-09-07T23:20:10.761Z,97804.91
2022-09-07T23:25:13.132Z,97815.59
2022-09-07T23:30:15.021Z,97813.56
2022-09-07T23:35:16.885Z,97814.59
2022-09-07T23:40:19.280Z,97808.50
2022-09-07T23:45:21.085Z,97806.97
2022-09-07T23:50:22.904Z,97806.28
2022-09-07T23:55:24.785Z,97806.47
